Ana Sayfa
METAR-TAF:

METAR-TAF

Havaalanları :

Victoria Falls Havalimanı

Victoria Şelalesi, Zimbabve

Enlem: 18-06S, Boylam: 025-51E, yükseklik: 1061 m

Güncel hava durumu gözlemi

Rapor saat 10:00 UTC de 1 saat ve 43 dakika önce yapıldı.
Rüzgar kuzey/kuzeybatıdan 11 kt
Sıcaklık 34°C
Nem 22%
Basınç 1014 hPa
Görüş mesafesi 10 km veya daha fazla
1500 m altında bulut yok ve kümülonimbus yok

METAR: FVFA 211000Z 33011KT CAVOK 34/09 Q1014 NOSIG

Saat: 13:43 (11:43 UTC)

Tahmin

Rapor saat 04:00 UTC de 31 saat ve 43 dakika önce yapıldı.
Ayın 19'si saat 06 UTC'den ayın 20'si saat 12 UTC'ye kadar geçerli Tahmin
Rüzgar doğudan 8 kt
Görüş mesafesi 10 km veya daha fazla
1500 m altında bulut yok ve kümülonimbus yok

TAF: FVFA 190400Z 1906/2012 09008KT CAVOK

4.000'den fazla havaalanı için hava durumu gözlemleri ve tahminleri (METAR ve TAF raporları).

Kullanılabilir istasyonlar harita üzerinde sarı ve kırmızı noktalarla gösterilir.

İstasyonun adını görmek için fareyi noktanın üzerinde gezdirin.

Sonrasında hava gözlem ve tahminlerini görmek için tıklayın.

Haritayı değiştirmek için: yaklaştırmak için siyah artı işaretli yeşil düğmeye ve uzaklaştırmak için de eksi işaretli düğmeye hızla tıklayın; bitişik haritalar için yeşil okları kullanın.


METAR-TAF: